sensor_id;sensor_type;location;lat;lon;timestamp;P1;durP1;ratioP1;P2;durP2;ratioP2
40623;SDS011;26325;48.594;11.650;2023-02-12T00:00:21;16.63;;;14.80;;
40623;SDS011;26325;48.594;11.650;2023-02-12T00:02:46;18.17;;;15.32;;
40623;SDS011;26325;48.594;11.650;2023-02-12T00:05:12;19.40;;;16.40;;
40623;SDS011;26325;48.594;11.650;2023-02-12T00:07:43;21.40;;;18.52;;
40623;SDS011;26325;48.594;11.650;2023-02-12T00:10:08;19.30;;;17.30;;
40623;SDS011;26325;48.594;11.650;2023-02-12T00:12:34;18.73;;;16.30;;
40623;SDS011;26325;48.594;11.650;2023-02-12T00:17:26;17.65;;;15.85;;
40623;SDS011;26325;48.594;11.650;2023-02-12T00:19:52;17.50;;;15.63;;
40623;SDS011;26325;48.594;11.650;2023-02-12T00:22:20;18.73;;;16.73;;
40623;SDS011;26325;48.594;11.650;2023-02-12T00:24:45;17.75;;;15.82;;
40623;SDS011;26325;48.594;11.650;2023-02-12T00:27:11;19.83;;;16.40;;
40623;SDS011;26325;48.594;11.650;2023-02-12T00:29:36;19.23;;;16.38;;
40623;SDS011;26325;48.594;11.650;2023-02-12T00:32:04;20.35;;;16.90;;
40623;SDS011;26325;48.594;11.650;2023-02-12T00:34:32;22.27;;;18.92;;
40623;SDS011;26325;48.594;11.650;2023-02-12T00:36:59;19.75;;;17.15;;
40623;SDS011;26325;48.594;11.650;2023-02-12T00:39:25;20.55;;;17.35;;
40623;SDS011;26325;48.594;11.650;2023-02-12T00:41:54;23.98;;;19.75;;
40623;SDS011;26325;48.594;11.650;2023-02-12T00:44:19;24.80;;;21.10;;
40623;SDS011;26325;48.594;11.650;2023-02-12T00:49:10;23.70;;;21.02;;
40623;SDS011;26325;48.594;11.650;2023-02-12T00:54:01;23.67;;;19.67;;
40623;SDS011;26325;48.594;11.650;2023-02-12T00:58:52;23.63;;;18.98;;
40623;SDS011;26325;48.594;11.650;2023-02-12T01:03:43;26.48;;;22.00;;
40623;SDS011;26325;48.594;11.650;2023-02-12T01:08:34;27.20;;;21.15;;
40623;SDS011;26325;48.594;11.650;2023-02-12T01:11:03;25.40;;;21.52;;
40623;SDS011;26325;48.594;11.650;2023-02-12T01:13:30;25.13;;;21.00;;
40623;SDS011;26325;48.594;11.650;2023-02-12T01:16:18;22.33;;;19.92;;
40623;SDS011;26325;48.594;11.650;2023-02-12T01:18:47;23.85;;;20.80;;
40623;SDS011;26325;48.594;11.650;2023-02-12T01:21:18;23.63;;;19.75;;
40623;SDS011;26325;48.594;11.650;2023-02-12T01:23:46;26.15;;;20.90;;
40623;SDS011;26325;48.594;11.650;2023-02-12T01:26:13;25.50;;;21.38;;
40623;SDS011;26325;48.594;11.650;2023-02-12T01:28:40;25.83;;;21.23;;
40623;SDS011;26325;48.594;11.650;2023-02-12T01:31:09;24.92;;;20.92;;
40623;SDS011;26325;48.594;11.650;2023-02-12T01:33:35;25.65;;;21.02;;
40623;SDS011;26325;48.594;11.650;2023-02-12T01:36:03;22.75;;;20.23;;
40623;SDS011;26325;48.594;11.650;2023-02-12T01:38:29;23.65;;;20.77;;
40623;SDS011;26325;48.594;11.650;2023-02-12T01:41:09;24.77;;;21.35;;
40623;SDS011;26325;48.594;11.650;2023-02-12T01:43:37;25.42;;;22.13;;
40623;SDS011;26325;48.594;11.650;2023-02-12T01:46:06;27.05;;;23.00;;
40623;SDS011;26325;48.594;11.650;2023-02-12T01:48:38;25.30;;;20.63;;
40623;SDS011;26325;48.594;11.650;2023-02-12T01:51:11;23.35;;;19.50;;
40623;SDS011;26325;48.594;11.650;2023-02-12T01:53:46;22.77;;;19.60;;
40623;SDS011;26325;48.594;11.650;2023-02-12T01:56:18;21.55;;;18.92;;
40623;SDS011;26325;48.594;11.650;2023-02-12T01:58:45;22.67;;;20.27;;
40623;SDS011;26325;48.594;11.650;2023-02-12T02:01:19;23.05;;;19.38;;
40623;SDS011;26325;48.594;11.650;2023-02-12T02:03:52;25.38;;;21.08;;
40623;SDS011;26325;48.594;11.650;2023-02-12T02:06:33;27.23;;;22.73;;
40623;SDS011;26325;48.594;11.650;2023-02-12T02:09:03;26.75;;;21.63;;
40623;SDS011;26325;48.594;11.650;2023-02-12T02:11:28;26.90;;;22.13;;
40623;SDS011;26325;48.594;11.650;2023-02-12T02:14:12;22.67;;;20.23;;
40623;SDS011;26325;48.594;11.650;2023-02-12T02:17:18;23.08;;;19.40;;
40623;SDS011;26325;48.594;11.650;2023-02-12T02:20:26;22.13;;;19.73;;
40623;SDS011;26325;48.594;11.650;2023-02-12T02:29:03;22.17;;;19.40;;
40623;SDS011;26325;48.594;11.650;2023-02-12T02:43:04;24.30;;;18.60;;
40623;SDS011;26325;48.594;11.650;2023-02-12T02:45:37;22.13;;;18.77;;
40623;SDS011;26325;48.594;11.650;2023-02-12T02:48:37;21.20;;;18.77;;
40623;SDS011;26325;48.594;11.650;2023-02-12T02:51:17;21.30;;;19.00;;
40623;SDS011;26325;48.594;11.650;2023-02-12T02:53:48;23.50;;;19.30;;
40623;SDS011;26325;48.594;11.650;2023-02-12T02:56:21;21.95;;;18.98;;
40623;SDS011;26325;48.594;11.650;2023-02-12T02:58:56;20.73;;;18.15;;
40623;SDS011;26325;48.594;11.650;2023-02-12T03:01:31;21.02;;;18.38;;
40623;SDS011;26325;48.594;11.650;2023-02-12T03:06:45;21.65;;;18.70;;
40623;SDS011;26325;48.594;11.650;2023-02-12T03:09:20;20.05;;;17.92;;
40623;SDS011;26325;48.594;11.650;2023-02-12T03:11:54;22.05;;;19.15;;
40623;SDS011;26325;48.594;11.650;2023-02-12T03:14:31;20.92;;;18.67;;
40623;SDS011;26325;48.594;11.650;2023-02-12T03:17:08;21.40;;;19.10;;
40623;SDS011;26325;48.594;11.650;2023-02-12T03:19:43;21.92;;;19.48;;
40623;SDS011;26325;48.594;11.650;2023-02-12T03:22:15;21.98;;;19.42;;
40623;SDS011;26325;48.594;11.650;2023-02-12T03:24:49;22.55;;;19.70;;
40623;SDS011;26325;48.594;11.650;2023-02-12T03:27:20;21.40;;;19.10;;
40623;SDS011;26325;48.594;11.650;2023-02-12T03:29:59;22.83;;;19.92;;
40623;SDS011;26325;48.594;11.650;2023-02-12T03:35:41;26.35;;;21.08;;
40623;SDS011;26325;48.594;11.650;2023-02-12T03:38:40;26.13;;;21.98;;
40623;SDS011;26325;48.594;11.650;2023-02-12T03:41:43;27.60;;;21.40;;
40623;SDS011;26325;48.594;11.650;2023-02-12T03:47:04;24.30;;;20.65;;
40623;SDS011;26325;48.594;11.650;2023-02-12T03:49:58;23.45;;;20.35;;
40623;SDS011;26325;48.594;11.650;2023-02-12T03:52:24;24.00;;;20.15;;
40623;SDS011;26325;48.594;11.650;2023-02-12T03:54:50;23.10;;;19.70;;
40623;SDS011;26325;48.594;11.650;2023-02-12T03:59:47;23.75;;;20.63;;
40623;SDS011;26325;48.594;11.650;2023-02-12T04:02:15;24.52;;;21.05;;
40623;SDS011;26325;48.594;11.650;2023-02-12T04:04:55;26.27;;;22.15;;
40623;SDS011;26325;48.594;11.650;2023-02-12T04:07:21;24.58;;;21.40;;
40623;SDS011;26325;48.594;11.650;2023-02-12T04:09:47;27.85;;;23.33;;
40623;SDS011;26325;48.594;11.650;2023-02-12T04:15:24;22.00;;;19.02;;
40623;SDS011;26325;48.594;11.650;2023-02-12T04:18:24;23.52;;;20.30;;
40623;SDS011;26325;48.594;11.650;2023-02-12T04:26:56;25.15;;;21.48;;
40623;SDS011;26325;48.594;11.650;2023-02-12T04:32:16;24.02;;;19.95;;
40623;SDS011;26325;48.594;11.650;2023-02-12T04:37:49;28.77;;;23.50;;
40623;SDS011;26325;48.594;11.650;2023-02-12T04:40:21;28.13;;;23.67;;
40623;SDS011;26325;48.594;11.650;2023-02-12T04:42:49;23.75;;;20.83;;
40623;SDS011;26325;48.594;11.650;2023-02-12T04:45:25;25.13;;;21.63;;
40623;SDS011;26325;48.594;11.650;2023-02-12T04:47:53;23.67;;;20.55;;
40623;SDS011;26325;48.594;11.650;2023-02-12T04:50:19;22.58;;;20.15;;
40623;SDS011;26325;48.594;11.650;2023-02-12T04:52:45;25.67;;;21.40;;
40623;SDS011;26325;48.594;11.650;2023-02-12T04:55:13;24.42;;;21.50;;
40623;SDS011;26325;48.594;11.650;2023-02-12T04:57:39;24.50;;;20.95;;
40623;SDS011;26325;48.594;11.650;2023-02-12T05:00:06;24.33;;;21.48;;
40623;SDS011;26325;48.594;11.650;2023-02-12T05:02:34;26.30;;;21.60;;
40623;SDS011;26325;48.594;11.650;2023-02-12T05:05:00;24.77;;;20.65;;
40623;SDS011;26325;48.594;11.650;2023-02-12T05:09:51;28.33;;;23.10;;
40623;SDS011;26325;48.594;11.650;2023-02-12T05:12:16;26.77;;;22.40;;
40623;SDS011;26325;48.594;11.650;2023-02-12T05:17:07;25.35;;;21.00;;
40623;SDS011;26325;48.594;11.650;2023-02-12T05:19:33;26.33;;;22.45;;
40623;SDS011;26325;48.594;11.650;2023-02-12T05:22:01;26.13;;;21.98;;
40623;SDS011;26325;48.594;11.650;2023-02-12T05:24:27;30.35;;;23.90;;
40623;SDS011;26325;48.594;11.650;2023-02-12T05:29:20;25.15;;;21.85;;
40623;SDS011;26325;48.594;11.650;2023-02-12T05:31:46;25.10;;;21.60;;
40623;SDS011;26325;48.594;11.650;2023-02-12T05:34:12;26.05;;;21.35;;
40623;SDS011;26325;48.594;11.650;2023-02-12T05:39:03;26.25;;;21.50;;
40623;SDS011;26325;48.594;11.650;2023-02-12T05:41:29;27.20;;;21.75;;
40623;SDS011;26325;48.594;11.650;2023-02-12T05:43:59;27.75;;;23.40;;
40623;SDS011;26325;48.594;11.650;2023-02-12T05:46:28;27.85;;;22.98;;
40623;SDS011;26325;48.594;11.650;2023-02-12T05:48:54;27.75;;;23.27;;
40623;SDS011;26325;48.594;11.650;2023-02-12T05:53:55;28.98;;;21.92;;
40623;SDS011;26325;48.594;11.650;2023-02-12T05:56:35;28.27;;;22.85;;
40623;SDS011;26325;48.594;11.650;2023-02-12T05:59:11;26.17;;;22.98;;
40623;SDS011;26325;48.594;11.650;2023-02-12T06:01:43;28.73;;;23.38;;
40623;SDS011;26325;48.594;11.650;2023-02-12T06:04:16;28.63;;;23.50;;
40623;SDS011;26325;48.594;11.650;2023-02-12T06:06:48;28.00;;;23.70;;
40623;SDS011;26325;48.594;11.650;2023-02-12T06:09:16;30.75;;;24.83;;
40623;SDS011;26325;48.594;11.650;2023-02-12T06:11:42;27.45;;;23.70;;
40623;SDS011;26325;48.594;11.650;2023-02-12T06:14:12;26.50;;;22.98;;
40623;SDS011;26325;48.594;11.650;2023-02-12T06:16:39;30.48;;;24.23;;
40623;SDS011;26325;48.594;11.650;2023-02-12T06:19:05;29.73;;;23.90;;
40623;SDS011;26325;48.594;11.650;2023-02-12T06:21:32;28.10;;;22.70;;
40623;SDS011;26325;48.594;11.650;2023-02-12T06:23:58;25.77;;;22.13;;
40623;SDS011;26325;48.594;11.650;2023-02-12T06:26:24;26.65;;;22.33;;
40623;SDS011;26325;48.594;11.650;2023-02-12T06:28:53;25.85;;;22.40;;
40623;SDS011;26325;48.594;11.650;2023-02-12T06:31:21;25.50;;;22.38;;
40623;SDS011;26325;48.594;11.650;2023-02-12T06:33:52;27.25;;;23.42;;
40623;SDS011;26325;48.594;11.650;2023-02-12T06:36:19;28.58;;;23.52;;
40623;SDS011;26325;48.594;11.650;2023-02-12T06:38:45;26.58;;;22.98;;
40623;SDS011;26325;48.594;11.650;2023-02-12T06:41:11;28.05;;;22.92;;
40623;SDS011;26325;48.594;11.650;2023-02-12T06:43:37;27.05;;;22.58;;
40623;SDS011;26325;48.594;11.650;2023-02-12T06:46:04;27.58;;;22.90;;
40623;SDS011;26325;48.594;11.650;2023-02-12T06:48:32;25.52;;;21.50;;
40623;SDS011;26325;48.594;11.650;2023-02-12T06:51:15;26.63;;;22.13;;
40623;SDS011;26325;48.594;11.650;2023-02-12T07:09:52;30.45;;;25.45;;
40623;SDS011;26325;48.594;11.650;2023-02-12T07:12:18;27.88;;;23.63;;
40623;SDS011;26325;48.594;11.650;2023-02-12T07:14:45;28.30;;;23.85;;
40623;SDS011;26325;48.594;11.650;2023-02-12T07:19:37;31.02;;;24.63;;
40623;SDS011;26325;48.594;11.650;2023-02-12T07:22:02;31.00;;;24.55;;
40623;SDS011;26325;48.594;11.650;2023-02-12T07:24:30;29.60;;;24.52;;
40623;SDS011;26325;48.594;11.650;2023-02-12T07:27:00;30.55;;;24.92;;
40623;SDS011;26325;48.594;11.650;2023-02-12T07:29:26;26.05;;;22.25;;
40623;SDS011;26325;48.594;11.650;2023-02-12T07:31:54;29.95;;;23.38;;
40623;SDS011;26325;48.594;11.650;2023-02-12T07:36:47;29.45;;;22.67;;
40623;SDS011;26325;48.594;11.650;2023-02-12T07:39:12;32.20;;;24.63;;
40623;SDS011;26325;48.594;11.650;2023-02-12T07:41:41;27.67;;;22.38;;
40623;SDS011;26325;48.594;11.650;2023-02-12T07:44:10;27.58;;;23.23;;
40623;SDS011;26325;48.594;11.650;2023-02-12T07:46:42;27.70;;;22.77;;
40623;SDS011;26325;48.594;11.650;2023-02-12T07:49:13;28.38;;;23.40;;
40623;SDS011;26325;48.594;11.650;2023-02-12T07:51:45;30.40;;;23.20;;
40623;SDS011;26325;48.594;11.650;2023-02-12T07:54:13;28.33;;;23.70;;
40623;SDS011;26325;48.594;11.650;2023-02-12T07:56:42;30.42;;;25.60;;
40623;SDS011;26325;48.594;11.650;2023-02-12T07:59:13;30.48;;;25.35;;
40623;SDS011;26325;48.594;11.650;2023-02-12T08:01:46;28.80;;;23.63;;
40623;SDS011;26325;48.594;11.650;2023-02-12T08:04:16;28.15;;;24.02;;
40623;SDS011;26325;48.594;11.650;2023-02-12T08:06:45;30.40;;;25.63;;
40623;SDS011;26325;48.594;11.650;2023-02-12T08:09:16;29.25;;;24.80;;
40623;SDS011;26325;48.594;11.650;2023-02-12T08:11:43;33.60;;;27.60;;
40623;SDS011;26325;48.594;11.650;2023-02-12T08:14:14;33.28;;;27.10;;
40623;SDS011;26325;48.594;11.650;2023-02-12T08:16:45;38.25;;;29.13;;
40623;SDS011;26325;48.594;11.650;2023-02-12T08:19:12;38.30;;;29.17;;
40623;SDS011;26325;48.594;11.650;2023-02-12T08:21:38;36.92;;;27.38;;
40623;SDS011;26325;48.594;11.650;2023-02-12T08:26:34;33.35;;;24.98;;
40623;SDS011;26325;48.594;11.650;2023-02-12T08:29:12;34.30;;;25.63;;
40623;SDS011;26325;48.594;11.650;2023-02-12T08:31:43;35.38;;;25.67;;
40623;SDS011;26325;48.594;11.650;2023-02-12T08:34:25;30.13;;;24.05;;
40623;SDS011;26325;48.594;11.650;2023-02-12T08:36:55;30.35;;;24.20;;
40623;SDS011;26325;48.594;11.650;2023-02-12T08:39:23;38.28;;;28.67;;
40623;SDS011;26325;48.594;11.650;2023-02-12T08:41:56;36.03;;;27.15;;
40623;SDS011;26325;48.594;11.650;2023-02-12T08:44:25;31.67;;;25.25;;
40623;SDS011;26325;48.594;11.650;2023-02-12T08:46:53;32.25;;;24.27;;
40623;SDS011;26325;48.594;11.650;2023-02-12T08:49:24;30.67;;;23.77;;
40623;SDS011;26325;48.594;11.650;2023-02-12T08:51:54;31.45;;;24.38;;
40623;SDS011;26325;48.594;11.650;2023-02-12T08:54:23;28.52;;;22.77;;
40623;SDS011;26325;48.594;11.650;2023-02-12T08:56:55;29.95;;;24.52;;
40623;SDS011;26325;48.594;11.650;2023-02-12T08:59:24;28.23;;;22.65;;
40623;SDS011;26325;48.594;11.650;2023-02-12T09:01:51;24.70;;;20.52;;
40623;SDS011;26325;48.594;11.650;2023-02-12T09:04:24;26.05;;;20.77;;
40623;SDS011;26325;48.594;11.650;2023-02-12T09:06:51;26.63;;;21.17;;
40623;SDS011;26325;48.594;11.650;2023-02-12T09:09:17;27.85;;;22.10;;
40623;SDS011;26325;48.594;11.650;2023-02-12T09:11:46;25.65;;;21.15;;
40623;SDS011;26325;48.594;11.650;2023-02-12T09:14:16;26.63;;;21.77;;
40623;SDS011;26325;48.594;11.650;2023-02-12T09:16:47;23.83;;;18.85;;
40623;SDS011;26325;48.594;11.650;2023-02-12T09:21:39;24.70;;;19.38;;
40623;SDS011;26325;48.594;11.650;2023-02-12T09:24:05;22.17;;;18.33;;
40623;SDS011;26325;48.594;11.650;2023-02-12T09:28:57;21.65;;;17.95;;
40623;SDS011;26325;48.594;11.650;2023-02-12T09:31:26;27.73;;;21.40;;
40623;SDS011;26325;48.594;11.650;2023-02-12T09:33:56;24.55;;;20.05;;
40623;SDS011;26325;48.594;11.650;2023-02-12T09:36:23;25.33;;;20.10;;
40623;SDS011;26325;48.594;11.650;2023-02-12T09:38:49;25.65;;;19.95;;
40623;SDS011;26325;48.594;11.650;2023-02-12T09:53:22;20.35;;;17.05;;
40623;SDS011;26325;48.594;11.650;2023-02-12T09:55:50;21.92;;;17.90;;
40623;SDS011;26325;48.594;11.650;2023-02-12T10:01:13;17.93;;;14.33;;
40623;SDS011;26325;48.594;11.650;2023-02-12T10:03:41;21.27;;;17.15;;
40623;SDS011;26325;48.594;11.650;2023-02-12T10:06:14;17.70;;;15.27;;
40623;SDS011;26325;48.594;11.650;2023-02-12T10:08:58;14.23;;;12.45;;
40623;SDS011;26325;48.594;11.650;2023-02-12T10:11:46;15.60;;;13.13;;
40623;SDS011;26325;48.594;11.650;2023-02-12T10:20:45;20.70;;;15.73;;
40623;SDS011;26325;48.594;11.650;2023-02-12T10:23:32;21.25;;;16.05;;
40623;SDS011;26325;48.594;11.650;2023-02-12T10:26:12;20.58;;;15.80;;
40623;SDS011;26325;48.594;11.650;2023-02-12T10:28:40;21.73;;;16.67;;
40623;SDS011;26325;48.594;11.650;2023-02-12T10:31:29;25.35;;;17.48;;
40623;SDS011;26325;48.594;11.650;2023-02-12T10:33:59;20.33;;;15.65;;
40623;SDS011;26325;48.594;11.650;2023-02-12T10:42:10;23.23;;;16.40;;
40623;SDS011;26325;48.594;11.650;2023-02-12T10:44:42;22.35;;;16.38;;
40623;SDS011;26325;48.594;11.650;2023-02-12T10:49:59;23.52;;;16.83;;
40623;SDS011;26325;48.594;11.650;2023-02-12T10:55:33;21.05;;;15.15;;
40623;SDS011;26325;48.594;11.650;2023-02-12T10:58:02;22.60;;;16.60;;
40623;SDS011;26325;48.594;11.650;2023-02-12T11:00:32;21.10;;;15.52;;
40623;SDS011;26325;48.594;11.650;2023-02-12T11:05:41;24.63;;;17.50;;
40623;SDS011;26325;48.594;11.650;2023-02-12T11:10:53;20.35;;;15.13;;
40623;SDS011;26325;48.594;11.650;2023-02-12T11:15:55;19.38;;;14.38;;
40623;SDS011;26325;48.594;11.650;2023-02-12T11:18:31;24.23;;;18.05;;
40623;SDS011;26325;48.594;11.650;2023-02-12T11:21:09;24.33;;;17.30;;
40623;SDS011;26325;48.594;11.650;2023-02-12T11:23:38;22.50;;;16.00;;
40623;SDS011;26325;48.594;11.650;2023-02-12T11:29:02;21.75;;;16.17;;
40623;SDS011;26325;48.594;11.650;2023-02-12T11:31:43;23.02;;;16.25;;
40623;SDS011;26325;48.594;11.650;2023-02-12T11:34:25;21.98;;;15.70;;
40623;SDS011;26325;48.594;11.650;2023-02-12T11:39:26;23.38;;;17.08;;
40623;SDS011;26325;48.594;11.650;2023-02-12T11:42:05;24.00;;;17.45;;
40623;SDS011;26325;48.594;11.650;2023-02-12T11:44:51;22.25;;;17.00;;
40623;SDS011;26325;48.594;11.650;2023-02-12T11:47:19;20.38;;;15.95;;
40623;SDS011;26325;48.594;11.650;2023-02-12T11:50:02;20.08;;;15.32;;
40623;SDS011;26325;48.594;11.650;2023-02-12T11:52:36;20.50;;;15.30;;
40623;SDS011;26325;48.594;11.650;2023-02-12T11:55:18;19.93;;;14.73;;
40623;SDS011;26325;48.594;11.650;2023-02-12T11:57:50;18.83;;;15.65;;
40623;SDS011;26325;48.594;11.650;2023-02-12T12:00:34;20.35;;;15.15;;
40623;SDS011;26325;48.594;11.650;2023-02-12T12:05:36;25.85;;;18.30;;
40623;SDS011;26325;48.594;11.650;2023-02-12T12:08:23;21.60;;;15.90;;
40623;SDS011;26325;48.594;11.650;2023-02-12T12:10:59;21.98;;;16.23;;
40623;SDS011;26325;48.594;11.650;2023-02-12T12:13:37;22.55;;;17.10;;
40623;SDS011;26325;48.594;11.650;2023-02-12T12:20:10;22.63;;;17.10;;
40623;SDS011;26325;48.594;11.650;2023-02-12T12:22:56;25.27;;;15.77;;
40623;SDS011;26325;48.594;11.650;2023-02-12T12:25:59;19.23;;;14.52;;
40623;SDS011;26325;48.594;11.650;2023-02-12T12:28:43;22.38;;;15.00;;
40623;SDS011;26325;48.594;11.650;2023-02-12T12:43:29;20.17;;;15.48;;
40623;SDS011;26325;48.594;11.650;2023-02-12T12:52:02;14.23;;;11.98;;
40623;SDS011;26325;48.594;11.650;2023-02-12T13:07:29;13.15;;;11.75;;
40623;SDS011;26325;48.594;11.650;2023-02-12T13:10:59;14.38;;;12.88;;
40623;SDS011;26325;48.594;11.650;2023-02-12T13:13:41;13.38;;;11.98;;
40623;SDS011;26325;48.594;11.650;2023-02-12T13:19:19;15.35;;;13.57;;
40623;SDS011;26325;48.594;11.650;2023-02-12T13:24:49;15.73;;;13.82;;
40623;SDS011;26325;48.594;11.650;2023-02-12T13:27:25;14.52;;;13.02;;
40623;SDS011;26325;48.594;11.650;2023-02-12T13:32:43;16.10;;;13.73;;
40623;SDS011;26325;48.594;11.650;2023-02-12T13:35:19;17.13;;;14.18;;
40623;SDS011;26325;48.594;11.650;2023-02-12T13:37:48;15.15;;;13.55;;
40623;SDS011;26325;48.594;11.650;2023-02-12T13:40:23;16.13;;;14.43;;
40623;SDS011;26325;48.594;11.650;2023-02-12T13:51:42;15.43;;;13.82;;
40623;SDS011;26325;48.594;11.650;2023-02-12T13:56:51;18.75;;;16.73;;
40623;SDS011;26325;48.594;11.650;2023-02-12T13:59:44;21.25;;;18.45;;
40623;SDS011;26325;48.594;11.650;2023-02-12T14:05:20;13.75;;;12.23;;
40623;SDS011;26325;48.594;11.650;2023-02-12T14:08:20;15.67;;;12.87;;
40623;SDS011;26325;48.594;11.650;2023-02-12T14:11:10;17.15;;;14.32;;
40623;SDS011;26325;48.594;11.650;2023-02-12T14:18:52;16.42;;;14.43;;
40623;SDS011;26325;48.594;11.650;2023-02-12T14:21:57;14.88;;;13.00;;
40623;SDS011;26325;48.594;11.650;2023-02-12T14:24:51;15.10;;;12.63;;
40623;SDS011;26325;48.594;11.650;2023-02-12T14:27:26;15.90;;;13.95;;
40623;SDS011;26325;48.594;11.650;2023-02-12T14:35:35;17.63;;;15.00;;
40623;SDS011;26325;48.594;11.650;2023-02-12T14:46:42;14.50;;;13.00;;
40623;SDS011;26325;48.594;11.650;2023-02-12T14:53:58;13.13;;;11.90;;
40623;SDS011;26325;48.594;11.650;2023-02-12T14:56:25;13.23;;;11.93;;
40623;SDS011;26325;48.594;11.650;2023-02-12T15:01:31;12.98;;;11.77;;
40623;SDS011;26325;48.594;11.650;2023-02-12T15:04:10;12.43;;;11.23;;
40623;SDS011;26325;48.594;11.650;2023-02-12T15:06:56;13.93;;;12.55;;
40623;SDS011;26325;48.594;11.650;2023-02-12T15:09:41;13.23;;;11.88;;
40623;SDS011;26325;48.594;11.650;2023-02-12T15:12:29;13.27;;;11.98;;
40623;SDS011;26325;48.594;11.650;2023-02-12T15:15:03;13.73;;;12.43;;
40623;SDS011;26325;48.594;11.650;2023-02-12T15:17:41;12.77;;;11.57;;
40623;SDS011;26325;48.594;11.650;2023-02-12T15:20:22;12.43;;;11.32;;
40623;SDS011;26325;48.594;11.650;2023-02-12T15:22:55;12.65;;;11.45;;
40623;SDS011;26325;48.594;11.650;2023-02-12T15:27:59;12.30;;;11.18;;
40623;SDS011;26325;48.594;11.650;2023-02-12T15:30:33;11.93;;;10.82;;
40623;SDS011;26325;48.594;11.650;2023-02-12T15:33:04;11.32;;;10.23;;
40623;SDS011;26325;48.594;11.650;2023-02-12T15:35:38;12.80;;;11.50;;
40623;SDS011;26325;48.594;11.650;2023-02-12T15:38:19;11.45;;;10.35;;
40623;SDS011;26325;48.594;11.650;2023-02-12T15:40:58;11.52;;;10.43;;
40623;SDS011;26325;48.594;11.650;2023-02-12T15:43:28;11.55;;;10.45;;
40623;SDS011;26325;48.594;11.650;2023-02-12T15:46:02;12.20;;;11.02;;
40623;SDS011;26325;48.594;11.650;2023-02-12T15:48:35;12.73;;;11.43;;
40623;SDS011;26325;48.594;11.650;2023-02-12T15:53:34;12.60;;;11.30;;
40623;SDS011;26325;48.594;11.650;2023-02-12T15:56:02;12.10;;;10.80;;
40623;SDS011;26325;48.594;11.650;2023-02-12T15:58:36;12.63;;;11.32;;
40623;SDS011;26325;48.594;11.650;2023-02-12T16:01:07;12.20;;;10.90;;
40623;SDS011;26325;48.594;11.650;2023-02-12T16:06:06;13.15;;;11.52;;
40623;SDS011;26325;48.594;11.650;2023-02-12T16:08:36;12.88;;;11.35;;
40623;SDS011;26325;48.594;11.650;2023-02-12T16:11:05;11.00;;;9.80;;
40623;SDS011;26325;48.594;11.650;2023-02-12T16:13:46;10.82;;;9.60;;
40623;SDS011;26325;48.594;11.650;2023-02-12T16:16:44;10.73;;;9.63;;
40623;SDS011;26325;48.594;11.650;2023-02-12T16:21:42;11.80;;;10.23;;
40623;SDS011;26325;48.594;11.650;2023-02-12T16:24:23;24.40;;;18.20;;
40623;SDS011;26325;48.594;11.650;2023-02-12T16:26:50;20.45;;;15.98;;
40623;SDS011;26325;48.594;11.650;2023-02-12T16:29:19;17.42;;;13.70;;
40623;SDS011;26325;48.594;11.650;2023-02-12T16:31:55;12.25;;;10.63;;
40623;SDS011;26325;48.594;11.650;2023-02-12T16:34:33;12.48;;;10.50;;
40623;SDS011;26325;48.594;11.650;2023-02-12T16:37:02;12.23;;;10.32;;
40623;SDS011;26325;48.594;11.650;2023-02-12T16:42:24;12.38;;;10.15;;
40623;SDS011;26325;48.594;11.650;2023-02-12T16:44:54;12.25;;;10.20;;
40623;SDS011;26325;48.594;11.650;2023-02-12T16:47:23;12.25;;;10.27;;
40623;SDS011;26325;48.594;11.650;2023-02-12T16:49:57;12.30;;;9.90;;
40623;SDS011;26325;48.594;11.650;2023-02-12T16:52:37;13.13;;;10.50;;
40623;SDS011;26325;48.594;11.650;2023-02-12T16:55:14;12.75;;;10.38;;
40623;SDS011;26325;48.594;11.650;2023-02-12T16:57:43;14.70;;;12.32;;
40623;SDS011;26325;48.594;11.650;2023-02-12T17:00:11;15.93;;;12.80;;
40623;SDS011;26325;48.594;11.650;2023-02-12T17:02:41;17.27;;;12.75;;
40623;SDS011;26325;48.594;11.650;2023-02-12T17:05:07;16.65;;;12.52;;
40623;SDS011;26325;48.594;11.650;2023-02-12T17:07:34;16.60;;;13.52;;
40623;SDS011;26325;48.594;11.650;2023-02-12T17:10:00;16.77;;;12.88;;
40623;SDS011;26325;48.594;11.650;2023-02-12T17:12:50;15.00;;;12.07;;
40623;SDS011;26325;48.594;11.650;2023-02-12T17:15:20;15.88;;;12.02;;
40623;SDS011;26325;48.594;11.650;2023-02-12T17:17:49;16.55;;;12.77;;
40623;SDS011;26325;48.594;11.650;2023-02-12T17:20:15;17.65;;;13.38;;
40623;SDS011;26325;48.594;11.650;2023-02-12T17:22:48;16.98;;;12.90;;
40623;SDS011;26325;48.594;11.650;2023-02-12T17:25:16;17.52;;;13.40;;
40623;SDS011;26325;48.594;11.650;2023-02-12T17:27:44;18.13;;;13.63;;
40623;SDS011;26325;48.594;11.650;2023-02-12T17:30:18;18.48;;;13.95;;
40623;SDS011;26325;48.594;11.650;2023-02-12T17:32:48;16.60;;;13.15;;
40623;SDS011;26325;48.594;11.650;2023-02-12T17:35:17;19.17;;;14.05;;
40623;SDS011;26325;48.594;11.650;2023-02-12T17:37:43;15.93;;;12.75;;
40623;SDS011;26325;48.594;11.650;2023-02-12T17:40:09;17.42;;;13.77;;
40623;SDS011;26325;48.594;11.650;2023-02-12T17:42:36;16.20;;;13.07;;
40623;SDS011;26325;48.594;11.650;2023-02-12T17:45:02;17.50;;;12.80;;
40623;SDS011;26325;48.594;11.650;2023-02-12T17:47:28;16.52;;;12.18;;
40623;SDS011;26325;48.594;11.650;2023-02-12T17:49:55;16.23;;;12.40;;
40623;SDS011;26325;48.594;11.650;2023-02-12T17:52:23;15.77;;;12.27;;
40623;SDS011;26325;48.594;11.650;2023-02-12T17:54:51;16.65;;;12.77;;
40623;SDS011;26325;48.594;11.650;2023-02-12T17:57:17;15.57;;;12.05;;
40623;SDS011;26325;48.594;11.650;2023-02-12T17:59:42;15.27;;;12.20;;
40623;SDS011;26325;48.594;11.650;2023-02-12T18:02:10;17.40;;;13.65;;
40623;SDS011;26325;48.594;11.650;2023-02-12T18:04:36;16.08;;;12.48;;
40623;SDS011;26325;48.594;11.650;2023-02-12T18:07:03;17.40;;;13.52;;
40623;SDS011;26325;48.594;11.650;2023-02-12T18:09:32;19.38;;;14.82;;
40623;SDS011;26325;48.594;11.650;2023-02-12T18:12:00;22.17;;;14.60;;
40623;SDS011;26325;48.594;11.650;2023-02-12T18:14:28;18.88;;;14.32;;
40623;SDS011;26325;48.594;11.650;2023-02-12T18:16:56;20.13;;;15.00;;
40623;SDS011;26325;48.594;11.650;2023-02-12T18:19:24;19.20;;;14.63;;
40623;SDS011;26325;48.594;11.650;2023-02-12T18:21:53;19.83;;;14.60;;
40623;SDS011;26325;48.594;11.650;2023-02-12T18:24:22;18.55;;;13.88;;
40623;SDS011;26325;48.594;11.650;2023-02-12T18:26:48;19.75;;;14.77;;
40623;SDS011;26325;48.594;11.650;2023-02-12T18:29:14;20.75;;;16.30;;
40623;SDS011;26325;48.594;11.650;2023-02-12T18:31:39;19.65;;;14.02;;
40623;SDS011;26325;48.594;11.650;2023-02-12T18:34:05;18.27;;;14.00;;
40623;SDS011;26325;48.594;11.650;2023-02-12T18:36:32;18.85;;;14.18;;
40623;SDS011;26325;48.594;11.650;2023-02-12T18:38:57;20.92;;;14.70;;
40623;SDS011;26325;48.594;11.650;2023-02-12T18:41:28;20.48;;;14.40;;